Time;durP1;ratioP1;P1;durP2;ratioP2;P2;SDS_P1;SDS_P2;PMS_P1;PMS_P2;Temp;Humidity;BMP_temperature;BMP_pressure;BME280_temperature;BME280_humidity;BME280_pressure;Samples;Min_cycle;Max_cycle;Signal;HPM_P1;HPM_P2
2023/01/29 05:02:54;;;;;;;1999.90;999.90;;;;;;;;;;5002360;23;20243;-71
2023/01/29 05:05:41;;;;;;;1999.90;999.90;;;;;;;;;;4955950;29;20204;-71
2023/01/29 05:08:27;;;;;;;1999.90;999.90;;;;;;;;;;4956434;28;20818;-72
2023/01/29 05:11:13;;;;;;;1999.90;999.90;;;;;;;;;;4936977;29;20236;-72
2023/01/29 05:13:58;;;;;;;1999.90;999.90;;;;;;;;;;4947364;29;20208;-72
2023/01/29 05:16:44;;;;;;;1999.90;999.90;;;;;;;;;;4956476;29;20212;-73
2023/01/29 05:19:31;;;;;;;1999.90;999.90;;;;;;;;;;4956360;29;20592;-73
2023/01/29 05:22:21;;;;;;;1999.90;999.90;;;;;;;;;;4956032;29;20232;-72
2023/01/29 05:25:12;;;;;;;1999.90;999.90;;;;;;;;;;4955644;29;20216;-71
2023/01/29 05:28:06;;;;;;;1999.90;999.90;;;;;;;;;;4955671;29;20213;-73
2023/01/29 05:30:51;;;;;;;1999.90;999.90;;;;;;;;;;4955854;29;20272;-72
2023/01/29 05:33:36;;;;;;;1999.90;999.90;;;;;;;;;;4955845;29;20872;-73
2023/01/29 05:36:24;;;;;;;1999.90;999.90;;;;;;;;;;4955285;29;20325;-72
2023/01/29 05:39:09;;;;;;;1999.90;999.90;;;;;;;;;;4956049;29;20275;-72
2023/01/29 05:41:54;;;;;;;1999.90;999.90;;;;;;;;;;4955645;28;20237;-72
2023/01/29 05:44:39;;;;;;;1999.90;999.90;;;;;;;;;;4955719;29;20208;-72
2023/01/29 05:47:23;;;;;;;1999.90;999.90;;;;;;;;;;4955572;29;20310;-72
2023/01/29 05:50:09;;;;;;;1999.90;999.90;;;;;;;;;;4955682;29;20244;-72
2023/01/29 05:52:59;;;;;;;1999.90;999.90;;;;;;;;;;4955478;29;20284;-72
2023/01/29 05:55:44;;;;;;;1999.90;999.90;;;;;;;;;;4955172;29;20332;-71
2023/01/29 05:58:30;;;;;;;1999.90;999.90;;;;;;;;;;4936332;29;20330;-72
2023/01/29 06:01:16;;;;;;;1999.90;999.90;;;;;;;;;;4946143;29;20591;-72
2023/01/29 06:04:01;;;;;;;1999.90;999.90;;;;;;;;;;4953340;29;20212;-73
2023/01/29 06:06:46;;;;;;;1999.90;999.90;;;;;;;;;;4955304;29;20579;-72
2023/01/29 06:09:32;;;;;;;1999.90;999.90;;;;;;;;;;4954708;29;20208;-72
2023/01/29 06:12:17;;;;;;;1999.90;999.90;;;;;;;;;;4955142;28;20356;-71
2023/01/29 06:15:02;;;;;;;1999.90;999.90;;;;;;;;;;4955535;28;20208;-71
2023/01/29 06:17:47;;;;;;;1999.90;999.90;;;;;;;;;;4961878;28;20251;-71
2023/01/29 06:20:32;;;;;;;1999.90;999.90;;;;;;;;;;4972658;28;20455;-73
2023/01/29 06:23:17;;;;;;;1999.90;999.90;;;;;;;;;;4970057;28;20694;-72
2023/01/29 06:26:03;;;;;;;1999.90;999.90;;;;;;;;;;4972720;28;20232;-73
2023/01/29 06:28:49;;;;;;;1999.90;999.90;;;;;;;;;;4973181;28;20331;-71
2023/01/29 06:31:34;;;;;;;1999.90;999.90;;;;;;;;;;4969507;28;20228;-72
2023/01/29 06:34:19;;;;;;;1999.90;999.90;;;;;;;;;;4964738;28;20698;-69
2023/01/29 06:37:04;;;;;;;1999.90;999.90;;;;;;;;;;4972863;28;20452;-71
2023/01/29 06:39:49;;;;;;;1999.90;999.90;;;;;;;;;;4972875;28;20335;-71
2023/01/29 06:42:36;;;;;;;1999.90;999.90;;;;;;;;;;4973848;28;20602;-72
2023/01/29 06:45:21;;;;;;;1999.90;999.90;;;;;;;;;;4973895;28;20579;-71
2023/01/29 06:48:06;;;;;;;1999.90;999.90;;;;;;;;;;4974118;28;20212;-72
2023/01/29 06:50:53;;;;;;;1999.90;999.90;;;;;;;;;;4960894;28;20229;-69
2023/01/29 06:53:38;;;;;;;1999.90;999.90;;;;;;;;;;4954987;28;20211;-72
2023/01/29 06:56:24;;;;;;;1999.90;999.90;;;;;;;;;;4969333;28;20203;-72
2023/01/29 06:59:11;;;;;;;1999.90;999.90;;;;;;;;;;4971910;28;20701;-72
2023/01/29 07:01:56;;;;;;;1999.90;999.90;;;;;;;;;;4972564;28;20227;-72
2023/01/29 07:04:41;;;;;;;1999.90;999.90;;;;;;;;;;4972369;28;20671;-72
2023/01/29 07:07:26;;;;;;;1999.90;999.90;;;;;;;;;;4972511;28;20211;-72
2023/01/29 07:10:11;;;;;;;1999.90;999.90;;;;;;;;;;4968505;28;20276;-72
2023/01/29 07:12:58;;;;;;;1999.90;999.90;;;;;;;;;;4972380;28;20702;-72
2023/01/29 07:15:45;;;;;;;1999.90;999.90;;;;;;;;;;4971848;28;20204;-73
2023/01/29 07:18:30;;;;;;;1999.90;999.90;;;;;;;;;;4972320;28;20687;-72
2023/01/29 07:21:15;;;;;;;1999.90;999.90;;;;;;;;;;4972142;28;20232;-73
2023/01/29 07:24:00;;;;;;;1999.90;999.90;;;;;;;;;;4972434;28;20201;-72
2023/01/29 07:26:45;;;;;;;1999.90;999.90;;;;;;;;;;4969184;28;20200;-72
2023/01/29 07:29:30;;;;;;;1999.90;999.90;;;;;;;;;;4971906;28;20328;-71
2023/01/29 07:32:16;;;;;;;1999.90;999.90;;;;;;;;;;4972083;28;20307;-72
2023/01/29 07:35:01;;;;;;;1999.90;999.90;;;;;;;;;;4971854;28;20204;-72
2023/01/29 07:37:48;;;;;;;1999.90;999.90;;;;;;;;;;4971192;28;20476;-72
2023/01/29 07:40:33;;;;;;;1999.90;999.90;;;;;;;;;;4971971;28;20208;-73
2023/01/29 07:43:18;;;;;;;1999.90;999.90;;;;;;;;;;4969287;28;20211;-72
2023/01/29 07:46:03;;;;;;;1999.90;999.90;;;;;;;;;;4970200;28;20212;-72
2023/01/29 07:48:50;;;;;;;1999.90;999.90;;;;;;;;;;4971078;28;20750;-69
2023/01/29 07:51:35;;;;;;;1999.90;999.90;;;;;;;;;;4972129;28;20239;-72
2023/01/29 07:54:20;;;;;;;1999.90;999.90;;;;;;;;;;4968729;28;20200;-72
2023/01/29 07:57:05;;;;;;;1999.90;999.90;;;;;;;;;;4970969;28;20215;-72
2023/01/29 07:59:50;;;;;;;1999.90;999.90;;;;;;;;;;4966066;28;20204;-71
2023/01/29 08:02:35;;;;;;;1999.90;999.90;;;;;;;;;;4971274;28;20540;-71
2023/01/29 08:05:21;;;;;;;1999.90;999.90;;;;;;;;;;4969414;28;20715;-72
2023/01/29 08:08:06;;;;;;;1999.90;999.90;;;;;;;;;;4971456;28;20216;-71
2023/01/29 08:10:51;;;;;;;1999.90;999.90;;;;;;;;;;4971385;28;20310;-72
2023/01/29 08:13:36;;;;;;;1999.90;999.90;;;;;;;;;;4971899;28;20275;-73
2023/01/29 08:16:21;;;;;;;1999.90;999.90;;;;;;;;;;4967461;28;20231;-71
2023/01/29 08:19:06;;;;;;;1999.90;999.90;;;;;;;;;;4971598;28;20212;-71
2023/01/29 08:21:52;;;;;;;1999.90;999.90;;;;;;;;;;4971797;28;20713;-72
2023/01/29 08:24:38;;;;;;;1999.90;999.90;;;;;;;;;;4975234;28;20692;-72
2023/01/29 08:27:23;;;;;;;1999.90;999.90;;;;;;;;;;4975793;28;20208;-72
2023/01/29 08:30:09;;;;;;;1999.90;999.90;;;;;;;;;;4938022;29;20209;-73
2023/01/29 08:32:53;;;;;;;1999.90;999.90;;;;;;;;;;4975189;28;20283;-72
2023/01/29 08:35:40;;;;;;;1999.90;999.90;;;;;;;;;;4975825;28;20251;-70
2023/01/29 08:38:26;;;;;;;1999.90;999.90;;;;;;;;;;4976476;28;20207;-70
2023/01/29 08:41:11;;;;;;;1999.90;999.90;;;;;;;;;;4976139;28;20227;-72
2023/01/29 08:43:59;;;;;;;1999.90;999.90;;;;;;;;;;4976186;28;20204;-71
2023/01/29 08:46:43;;;;;;;1999.90;999.90;;;;;;;;;;4976355;28;20204;-73
2023/01/29 08:49:28;;;;;;;1999.90;999.90;;;;;;;;;;4976255;28;20693;-73
2023/01/29 08:52:13;;;;;;;1999.90;999.90;;;;;;;;;;4963171;28;20251;-73
2023/01/29 08:54:59;;;;;;;1999.90;999.90;;;;;;;;;;4953837;29;20220;-73
2023/01/29 08:57:44;;;;;;;1999.90;999.90;;;;;;;;;;4955958;29;20209;-73
2023/01/29 09:00:29;;;;;;;1999.90;999.90;;;;;;;;;;4956427;29;20216;-73
2023/01/29 09:03:14;;;;;;;1999.90;999.90;;;;;;;;;;4955991;29;20220;-73
2023/01/29 09:05:59;;;;;;;1999.90;999.90;;;;;;;;;;4955635;29;20216;-73
2023/01/29 09:08:44;;;;;;;1999.90;999.90;;;;;;;;;;4947647;28;20699;-73
2023/01/29 09:11:30;;;;;;;1999.90;999.90;;;;;;;;;;4953098;28;20235;-72
2023/01/29 09:14:15;;;;;;;1999.90;999.90;;;;;;;;;;4953381;29;20215;-72
2023/01/29 09:17:00;;;;;;;1999.90;999.90;;;;;;;;;;4953729;29;20268;-72
2023/01/29 09:19:45;;;;;;;1999.90;999.90;;;;;;;;;;4951474;29;20468;-74
2023/01/29 09:22:30;;;;;;;1999.90;999.90;;;;;;;;;;4954070;28;20240;-71
2023/01/29 09:25:15;;;;;;;1999.90;999.90;;;;;;;;;;4951452;28;20212;-73
2023/01/29 09:28:01;;;;;;;1999.90;999.90;;;;;;;;;;4957783;28;20216;-72
2023/01/29 09:30:46;;;;;;;1999.90;999.90;;;;;;;;;;4958505;28;20335;-71
2023/01/29 09:33:31;;;;;;;1999.90;999.90;;;;;;;;;;4956232;28;20287;-72
2023/01/29 09:36:16;;;;;;;1999.90;999.90;;;;;;;;;;4953148;29;20650;-71
2023/01/29 09:39:01;;;;;;;1999.90;999.90;;;;;;;;;;4958752;28;20301;-72
2023/01/29 09:41:51;;;;;;;1999.90;999.90;;;;;;;;;;4953614;28;20444;-72
2023/01/29 09:44:46;;;;;;;1999.90;999.90;;;;;;;;;;4950931;29;20582;-72
2023/01/29 09:47:33;;;;;;;1999.90;999.90;;;;;;;;;;4951173;29;20208;-71
2023/01/29 09:50:21;;;;;;;1999.90;999.90;;;;;;;;;;4951509;29;20286;-72
2023/01/29 09:53:11;;;;;;;1999.90;999.90;;;;;;;;;;4952710;29;20232;-72
2023/01/29 09:55:59;;;;;;;1999.90;999.90;;;;;;;;;;4950715;29;20209;-72
2023/01/29 09:58:44;;;;;;;1999.90;999.90;;;;;;;;;;4952699;29;20212;-72
2023/01/29 10:01:33;;;;;;;1999.90;999.90;;;;;;;;;;4952182;28;20361;-72
2023/01/29 10:04:27;;;;;;;1999.90;999.90;;;;;;;;;;4952911;29;20209;-72
2023/01/29 10:07:22;;;;;;;1999.90;999.90;;;;;;;;;;4952312;29;20228;-71
2023/01/29 10:10:14;;;;;;;1999.90;999.90;;;;;;;;;;4952379;29;20224;-71
2023/01/29 10:13:02;;;;;;;1999.90;999.90;;;;;;;;;;4951666;29;20734;-70
2023/01/29 10:15:51;;;;;;;1999.90;999.90;;;;;;;;;;4950601;29;20715;-71
2023/01/29 10:18:53;;;;;;;1999.90;999.90;;;;;;;;;;4951791;29;20285;-71
2023/01/29 10:21:56;;;;;;;1999.90;999.90;;;;;;;;;;4952918;28;20344;-71
2023/01/29 10:24:49;;;;;;;1999.90;999.90;;;;;;;;;;4951958;29;20281;-71
2023/01/29 10:27:37;;;;;;;1999.90;999.90;;;;;;;;;;4952519;29;20209;-72
2023/01/29 10:30:28;;;;;;;1999.90;999.90;;;;;;;;;;4952527;29;20245;-71
2023/01/29 10:33:17;;;;;;;1999.90;999.90;;;;;;;;;;4953207;29;20288;-72
2023/01/29 10:36:06;;;;;;;1999.90;999.90;;;;;;;;;;4952273;29;20209;-71
2023/01/29 10:38:52;;;;;;;1999.90;999.90;;;;;;;;;;4952434;29;20610;-72
2023/01/29 10:41:44;;;;;;;1999.90;999.90;;;;;;;;;;4952503;28;20224;-71
2023/01/29 10:44:35;;;;;;;1999.90;999.90;;;;;;;;;;4950313;28;20209;-71
2023/01/29 10:47:29;;;;;;;1999.90;999.90;;;;;;;;;;4952572;29;20330;-72
2023/01/29 10:50:18;;;;;;;1999.90;999.90;;;;;;;;;;4954380;29;20691;-72
2023/01/29 10:53:15;;;;;;;1999.90;999.90;;;;;;;;;;4954305;29;20714;-72
2023/01/29 10:56:05;;;;;;;1999.90;999.90;;;;;;;;;;4954097;29;20206;-72
2023/01/29 10:58:52;;;;;;;1999.90;999.90;;;;;;;;;;4951385;29;20212;-71
2023/01/29 11:01:36;;;;;;;1999.90;999.90;;;;;;;;;;4954065;28;20770;-72
2023/01/29 11:04:21;;;;;;;1999.90;999.90;;;;;;;;;;4954082;29;20212;-72
2023/01/29 11:07:07;;;;;;;1999.90;999.90;;;;;;;;;;4954285;29;20699;-72
2023/01/29 11:09:56;;;;;;;1999.90;999.90;;;;;;;;;;4954107;29;20213;-71
2023/01/29 11:12:42;;;;;;;1999.90;999.90;;;;;;;;;;4953049;29;20729;-72
2023/01/29 11:15:30;;;;;;;1999.90;999.90;;;;;;;;;;4944299;29;20690;-70
2023/01/29 11:18:15;;;;;;;1999.90;999.90;;;;;;;;;;4953081;29;20433;-72
2023/01/29 11:21:02;;;;;;;1999.90;999.90;;;;;;;;;;4935042;29;20599;-71
2023/01/29 11:23:47;;;;;;;1999.90;999.90;;;;;;;;;;4934871;29;20215;-72
2023/01/29 11:26:35;;;;;;;1999.90;999.90;;;;;;;;;;4934920;29;20280;-71
2023/01/29 11:29:29;;;;;;;1999.90;999.90;;;;;;;;;;4934949;29;20213;-71
2023/01/29 11:32:15;;;;;;;1999.90;999.90;;;;;;;;;;4948492;29;20240;-71
2023/01/29 11:35:01;;;;;;;1999.90;999.90;;;;;;;;;;4953333;29;20698;-71
2023/01/29 11:37:47;;;;;;;1999.90;999.90;;;;;;;;;;4954160;29;20250;-72
2023/01/29 11:40:36;;;;;;;1999.90;999.90;;;;;;;;;;4953338;28;20857;-71
2023/01/29 11:43:30;;;;;;;1999.90;999.90;;;;;;;;;;4947719;29;20204;-70
2023/01/29 11:46:16;;;;;;;1999.90;999.90;;;;;;;;;;4953095;29;20221;-70
2023/01/29 11:49:02;;;;;;;1999.90;999.90;;;;;;;;;;4952997;29;20272;-72
2023/01/29 11:51:51;;;;;;;1999.90;999.90;;;;;;;;;;4952949;28;20361;-71
2023/01/29 11:54:39;;;;;;;1999.90;999.90;;;;;;;;;;4950292;29;20216;-72
2023/01/29 11:57:27;;;;;;;1999.90;999.90;;;;;;;;;;4953875;28;20220;-71
2023/01/29 12:00:18;;;;;;;1999.90;999.90;;;;;;;;;;4956942;29;20238;-72
2023/01/29 12:03:07;;;;;;;1999.90;999.90;;;;;;;;;;4957153;29;20208;-72
2023/01/29 12:05:54;;;;;;;1999.90;999.90;;;;;;;;;;4953526;29;20216;-71
2023/01/29 12:08:39;;;;;;;1999.90;999.90;;;;;;;;;;4956794;29;20256;-71
2023/01/29 12:11:25;;;;;;;1999.90;999.90;;;;;;;;;;4956671;28;20224;-71
2023/01/29 12:14:23;;;;;;;1999.90;999.90;;;;;;;;;;4956933;29;20216;-71
2023/01/29 12:17:12;;;;;;;1999.90;999.90;;;;;;;;;;4956636;29;20244;-70
2023/01/29 12:19:58;;;;;;;1999.90;999.90;;;;;;;;;;4948005;29;20209;-71
2023/01/29 12:22:45;;;;;;;1999.90;999.90;;;;;;;;;;4950682;29;20420;-71
2023/01/29 12:25:37;;;;;;;1999.90;999.90;;;;;;;;;;4956052;29;20254;-69
2023/01/29 12:28:33;;;;;;;1999.90;999.90;;;;;;;;;;4956644;29;20206;-71
2023/01/29 12:31:24;;;;;;;1999.90;999.90;;;;;;;;;;4956433;28;20278;-71
2023/01/29 12:34:15;;;;;;;1999.90;999.90;;;;;;;;;;4956971;29;20707;-70
2023/01/29 12:37:02;;;;;;;1999.90;999.90;;;;;;;;;;4948520;28;20232;-70
2023/01/29 12:39:48;;;;;;;1999.90;999.90;;;;;;;;;;4956954;29;20210;-70
2023/01/29 12:42:34;;;;;;;1999.90;999.90;;;;;;;;;;4956695;28;20226;-71
2023/01/29 12:45:21;;;;;;;1999.90;999.90;;;;;;;;;;4956600;29;20220;-71
2023/01/29 12:48:07;;;;;;;1999.90;999.90;;;;;;;;;;4956303;29;20339;-71
2023/01/29 12:50:55;;;;;;;1999.90;999.90;;;;;;;;;;4956673;28;20228;-71
2023/01/29 12:53:44;;;;;;;1999.90;999.90;;;;;;;;;;4955990;29;20229;-71
2023/01/29 12:56:32;;;;;;;1999.90;999.90;;;;;;;;;;4954656;29;20204;-71
2023/01/29 12:59:18;;;;;;;1999.90;999.90;;;;;;;;;;4955892;29;20217;-71
2023/01/29 13:02:06;;;;;;;1999.90;999.90;;;;;;;;;;4959615;28;20249;-71
2023/01/29 13:04:55;;;;;;;1999.90;999.90;;;;;;;;;;4955843;29;20221;-71
2023/01/29 13:07:45;;;;;;;1999.90;999.90;;;;;;;;;;4954804;28;20240;-71
2023/01/29 13:10:32;;;;;;;1999.90;999.90;;;;;;;;;;4955730;28;20207;-71
2023/01/29 13:13:21;;;;;;;1999.90;999.90;;;;;;;;;;4950729;29;20720;-71
2023/01/29 13:16:10;;;;;;;1999.90;999.90;;;;;;;;;;4955347;29;20209;-71
2023/01/29 13:18:57;;;;;;;1999.90;999.90;;;;;;;;;;4938565;29;20222;-71
2023/01/29 13:21:44;;;;;;;1999.90;999.90;;;;;;;;;;4950477;28;20705;-71
2023/01/29 13:24:34;;;;;;;1999.90;999.90;;;;;;;;;;4941927;29;20226;-71
2023/01/29 13:27:21;;;;;;;1999.90;999.90;;;;;;;;;;4953041;29;20253;-70
2023/01/29 13:30:07;;;;;;;1999.90;999.90;;;;;;;;;;4952629;29;20576;-73
2023/01/29 13:32:53;;;;;;;1999.90;999.90;;;;;;;;;;4944706;29;20611;-71
2023/01/29 13:35:39;;;;;;;1999.90;999.90;;;;;;;;;;4942202;29;20292;-73
2023/01/29 13:38:26;;;;;;;1999.90;999.90;;;;;;;;;;4949463;29;20805;-73
2023/01/29 13:41:13;;;;;;;1999.90;999.90;;;;;;;;;;4941910;29;20602;-73
2023/01/29 13:43:58;;;;;;;1999.90;999.90;;;;;;;;;;4951451;29;20208;-73
2023/01/29 13:46:48;;;;;;;1999.90;999.90;;;;;;;;;;4941749;29;20210;-73
2023/01/29 13:49:35;;;;;;;1999.90;999.90;;;;;;;;;;4943654;29;20219;-73
2023/01/29 13:52:24;;;;;;;1999.90;999.90;;;;;;;;;;4949659;29;20315;-72
2023/01/29 13:55:20;;;;;;;1999.90;999.90;;;;;;;;;;4943802;29;20350;-73
2023/01/29 13:58:07;;;;;;;1999.90;999.90;;;;;;;;;;4955302;29;20420;-73
2023/01/29 14:00:52;;;;;;;1999.90;999.90;;;;;;;;;;4954782;28;20354;-72
2023/01/29 14:03:46;;;;;;;1999.90;999.90;;;;;;;;;;4948628;29;20253;-72
2023/01/29 14:06:43;;;;;;;1999.90;999.90;;;;;;;;;;4942252;29;20331;-72
2023/01/29 14:09:49;;;;;;;1999.90;999.90;;;;;;;;;;4951236;29;20210;-71
2023/01/29 14:12:39;;;;;;;1999.90;999.90;;;;;;;;;;4950492;28;20234;-72
2023/01/29 14:15:27;;;;;;;1999.90;999.90;;;;;;;;;;4953185;29;20300;-73
2023/01/29 14:18:19;;;;;;;1999.90;999.90;;;;;;;;;;4954832;29;20222;-72
2023/01/29 14:21:05;;;;;;;1999.90;999.90;;;;;;;;;;4954636;29;20233;-72
2023/01/29 14:23:52;;;;;;;1999.90;999.90;;;;;;;;;;4946706;29;20204;-72
2023/01/29 14:26:42;;;;;;;1999.90;999.90;;;;;;;;;;4953981;29;20217;-72
2023/01/29 14:29:28;;;;;;;1999.90;999.90;;;;;;;;;;4956044;28;20275;-72
2023/01/29 14:32:18;;;;;;;1999.90;999.90;;;;;;;;;;4955855;28;20231;-72
2023/01/29 14:35:05;;;;;;;1999.90;999.90;;;;;;;;;;4954713;29;20285;-73
2023/01/29 14:37:50;;;;;;;1999.90;999.90;;;;;;;;;;4954625;29;20225;-72
2023/01/29 14:40:36;;;;;;;1999.90;999.90;;;;;;;;;;4954784;29;20209;-72
2023/01/29 14:43:21;;;;;;;1999.90;999.90;;;;;;;;;;4954705;29;20580;-72
2023/01/29 14:46:25;;;;;;;1999.90;999.90;;;;;;;;;;4954315;29;20716;-72
2023/01/29 14:49:11;;;;;;;1999.90;999.90;;;;;;;;;;4947716;29;20221;-72
2023/01/29 14:51:58;;;;;;;1999.90;999.90;;;;;;;;;;4935277;29;20230;-71
2023/01/29 14:54:43;;;;;;;1999.90;999.90;;;;;;;;;;4939616;29;20217;-71
2023/01/29 14:57:28;;;;;;;1999.90;999.90;;;;;;;;;;4948335;29;20347;-72
2023/01/29 15:00:16;;;;;;;1999.90;999.90;;;;;;;;;;4950792;29;20214;-72
2023/01/29 15:03:02;;;;;;;1999.90;999.90;;;;;;;;;;4951395;28;20233;-72
2023/01/29 15:05:49;;;;;;;1999.90;999.90;;;;;;;;;;4947620;29;20252;-72
2023/01/29 15:08:37;;;;;;;1999.90;999.90;;;;;;;;;;4953212;29;20268;-71
2023/01/29 15:11:36;;;;;;;1999.90;999.90;;;;;;;;;;4954325;28;20594;-71
2023/01/29 15:14:24;;;;;;;1999.90;999.90;;;;;;;;;;4953151;29;20361;-71
2023/01/29 15:17:17;;;;;;;1999.90;999.90;;;;;;;;;;4954136;29;20213;-72
2023/01/29 15:20:20;;;;;;;1999.90;999.90;;;;;;;;;;4954219;29;20205;-72
2023/01/29 15:23:23;;;;;;;1999.90;999.90;;;;;;;;;;4954267;29;20269;-72
2023/01/29 15:26:10;;;;;;;1999.90;999.90;;;;;;;;;;4954127;29;20706;-72
2023/01/29 15:28:56;;;;;;;1999.90;999.90;;;;;;;;;;4954277;29;20297;-72
2023/01/29 15:31:41;;;;;;;1999.90;999.90;;;;;;;;;;4953641;28;20228;-72
2023/01/29 15:34:26;;;;;;;1999.90;999.90;;;;;;;;;;4953443;29;20233;-72
2023/01/29 15:37:25;;;;;;;1999.90;999.90;;;;;;;;;;4954039;29;20284;-72
2023/01/29 15:40:14;;;;;;;1999.90;999.90;;;;;;;;;;4954015;29;20212;-72
2023/01/29 15:42:59;;;;;;;1999.90;999.90;;;;;;;;;;4953793;29;20265;-72
2023/01/29 15:45:44;;;;;;;1999.90;999.90;;;;;;;;;;4953587;29;20229;-72
2023/01/29 15:48:31;;;;;;;1999.90;999.90;;;;;;;;;;4953777;29;20217;-72
2023/01/29 15:51:17;;;;;;;1999.90;999.90;;;;;;;;;;4954032;28;20703;-72
2023/01/29 15:54:03;;;;;;;1999.90;999.90;;;;;;;;;;4953563;29;20227;-70
2023/01/29 15:56:51;;;;;;;1999.90;999.90;;;;;;;;;;4953735;29;20216;-72
2023/01/29 15:59:40;;;;;;;1999.90;999.90;;;;;;;;;;4953837;29;20697;-72
2023/01/29 16:02:31;;;;;;;1999.90;999.90;;;;;;;;;;4952797;28;20424;-72
2023/01/29 16:05:19;;;;;;;1999.90;999.90;;;;;;;;;;4953205;29;20209;-72
2023/01/29 16:08:05;;;;;;;1999.90;999.90;;;;;;;;;;4953524;29;20221;-72
2023/01/29 16:10:51;;;;;;;1999.90;999.90;;;;;;;;;;4953671;28;20233;-72
2023/01/29 16:13:41;;;;;;;1999.90;999.90;;;;;;;;;;4953548;29;20585;-72
2023/01/29 16:16:27;;;;;;;1999.90;999.90;;;;;;;;;;4953368;29;20209;-71
2023/01/29 16:19:22;;;;;;;1999.90;999.90;;;;;;;;;;4953405;29;20204;-72
2023/01/29 16:22:08;;;;;;;1999.90;999.90;;;;;;;;;;4953823;28;20725;-72
2023/01/29 16:24:54;;;;;;;1999.90;999.90;;;;;;;;;;4953331;29;20569;-72
2023/01/29 16:27:42;;;;;;;1999.90;999.90;;;;;;;;;;4953290;29;20217;-72
2023/01/29 16:30:28;;;;;;;1999.90;999.90;;;;;;;;;;4953683;28;20330;-72
2023/01/29 16:33:15;;;;;;;1999.90;999.90;;;;;;;;;;4953352;29;20224;-72
2023/01/29 16:36:04;;;;;;;1999.90;999.90;;;;;;;;;;4953310;29;20212;-71
2023/01/29 16:38:50;;;;;;;1999.90;999.90;;;;;;;;;;4955073;29;20454;-72
2023/01/29 16:41:37;;;;;;;1999.90;999.90;;;;;;;;;;4953393;28;20731;-72
2023/01/29 16:44:32;;;;;;;1999.90;999.90;;;;;;;;;;4955794;29;20256;-71
2023/01/29 16:47:23;;;;;;;1999.90;999.90;;;;;;;;;;4956953;29;20665;-72
2023/01/29 16:50:25;;;;;;;1999.90;999.90;;;;;;;;;;4956962;29;20212;-72
2023/01/29 16:53:12;;;;;;;1999.90;999.90;;;;;;;;;;4956777;29;20297;-71
2023/01/29 16:56:01;;;;;;;1999.90;999.90;;;;;;;;;;4956570;29;20226;-71
2023/01/29 16:58:49;;;;;;;1999.90;999.90;;;;;;;;;;4956789;29;20338;-71
2023/01/29 17:01:34;;;;;;;1999.90;999.90;;;;;;;;;;4956553;28;20327;-71
2023/01/29 17:04:21;;;;;;;1999.90;999.90;;;;;;;;;;4956381;29;20210;-72
2023/01/29 17:07:06;;;;;;;1999.90;999.90;;;;;;;;;;4956527;29;20209;-71
2023/01/29 17:09:53;;;;;;;1999.90;999.90;;;;;;;;;;4956535;29;20213;-71
2023/01/29 17:12:38;;;;;;;1999.90;999.90;;;;;;;;;;4956431;28;20600;-72
2023/01/29 17:15:31;;;;;;;1999.90;999.90;;;;;;;;;;4956347;29;20269;-72
2023/01/29 17:18:18;;;;;;;1999.90;999.90;;;;;;;;;;4956690;29;20561;-72
2023/01/29 17:21:04;;;;;;;1999.90;999.90;;;;;;;;;;4956550;28;20307;-72
2023/01/29 17:23:50;;;;;;;1999.90;999.90;;;;;;;;;;4957356;29;20209;-72
2023/01/29 17:26:34;;;;;;;1999.90;999.90;;;;;;;;;;4958451;29;20572;-72
2023/01/29 17:29:20;;;;;;;1999.90;999.90;;;;;;;;;;4957957;29;20216;-72
2023/01/29 17:32:06;;;;;;;1999.90;999.90;;;;;;;;;;4956122;28;20241;-72
2023/01/29 17:34:51;;;;;;;1999.90;999.90;;;;;;;;;;4955500;29;20224;-72
2023/01/29 17:37:37;;;;;;;1999.90;999.90;;;;;;;;;;4956299;29;20336;-73
2023/01/29 17:40:27;;;;;;;1999.90;999.90;;;;;;;;;;4955471;28;20456;-72
2023/01/29 17:43:13;;;;;;;1999.90;999.90;;;;;;;;;;4955918;29;20253;-73
2023/01/29 17:45:58;;;;;;;1999.90;999.90;;;;;;;;;;4955831;29;20213;-72
2023/01/29 17:48:43;;;;;;;1999.90;999.90;;;;;;;;;;4955993;29;20322;-72
2023/01/29 17:51:28;;;;;;;1999.90;999.90;;;;;;;;;;4955947;28;20593;-72
2023/01/29 17:54:14;;;;;;;1999.90;999.90;;;;;;;;;;4955104;28;20233;-73
2023/01/29 17:56:59;;;;;;;1999.90;999.90;;;;;;;;;;4955756;29;20210;-73
2023/01/29 17:59:44;;;;;;;1999.90;999.90;;;;;;;;;;4955658;29;20226;-73
2023/01/29 18:02:29;;;;;;;1999.90;999.90;;;;;;;;;;4955329;28;20240;-73
2023/01/29 18:05:15;;;;;;;1999.90;999.90;;;;;;;;;;4955438;29;20206;-72
2023/01/29 18:07:59;;;;;;;1999.90;999.90;;;;;;;;;;4955532;29;20269;-72
2023/01/29 18:10:46;;;;;;;1999.90;999.90;;;;;;;;;;4955585;28;20253;-73
2023/01/29 18:13:31;;;;;;;1999.90;999.90;;;;;;;;;;4955105;29;20225;-72
2023/01/29 18:16:17;;;;;;;1999.90;999.90;;;;;;;;;;4955084;29;20697;-73
2023/01/29 18:19:02;;;;;;;1999.90;999.90;;;;;;;;;;4955350;29;20213;-72
2023/01/29 18:21:47;;;;;;;1999.90;999.90;;;;;;;;;;4955198;28;20233;-72
2023/01/29 18:24:34;;;;;;;1999.90;999.90;;;;;;;;;;4954933;29;20302;-73
2023/01/29 18:27:20;;;;;;;1999.90;999.90;;;;;;;;;;4955284;29;20289;-73
2023/01/29 18:30:06;;;;;;;1999.90;999.90;;;;;;;;;;4955245;29;20207;-72
2023/01/29 18:32:52;;;;;;;1999.90;999.90;;;;;;;;;;4955319;29;20580;-72
2023/01/29 18:35:37;;;;;;;1999.90;999.90;;;;;;;;;;4954754;29;20196;-73
2023/01/29 18:38:22;;;;;;;1999.90;999.90;;;;;;;;;;4955088;29;20211;-72
2023/01/29 18:41:09;;;;;;;1999.90;999.90;;;;;;;;;;4954611;28;20222;-73
2023/01/29 18:43:55;;;;;;;1999.90;999.90;;;;;;;;;;4954830;29;20201;-72
2023/01/29 18:46:40;;;;;;;1999.90;999.90;;;;;;;;;;4954493;29;20210;-72
2023/01/29 18:49:25;;;;;;;1999.90;999.90;;;;;;;;;;4955019;29;20572;-72
2023/01/29 18:52:10;;;;;;;1999.90;999.90;;;;;;;;;;4953312;28;21013;-72
2023/01/29 18:54:54;;;;;;;1999.90;999.90;;;;;;;;;;4954273;29;20615;-72
2023/01/29 18:57:39;;;;;;;1999.90;999.90;;;;;;;;;;4954654;29;20220;-73
2023/01/29 19:00:26;;;;;;;1999.90;999.90;;;;;;;;;;4954408;28;20214;-72
2023/01/29 19:03:11;;;;;;;1999.90;999.90;;;;;;;;;;4954544;29;20294;-72
2023/01/29 19:06:00;;;;;;;1999.90;999.90;;;;;;;;;;4953954;28;20359;-72
2023/01/29 19:08:46;;;;;;;1999.90;999.90;;;;;;;;;;4954467;29;20305;-72
2023/01/29 19:11:30;;;;;;;1999.90;999.90;;;;;;;;;;4954484;28;20244;-72
2023/01/29 19:14:15;;;;;;;1999.90;999.90;;;;;;;;;;4954053;29;20303;-73
2023/01/29 19:17:03;;;;;;;1999.90;999.90;;;;;;;;;;4954307;29;20478;-73
2023/01/29 19:19:48;;;;;;;1999.90;999.90;;;;;;;;;;4954288;29;20213;-72
2023/01/29 19:22:33;;;;;;;1999.90;999.90;;;;;;;;;;4954365;28;20349;-72
2023/01/29 19:25:18;;;;;;;1999.90;999.90;;;;;;;;;;4953968;29;20506;-72
2023/01/29 19:28:04;;;;;;;1999.90;999.90;;;;;;;;;;4954150;29;20615;-71
2023/01/29 19:30:49;;;;;;;1999.90;999.90;;;;;;;;;;4954205;28;20303;-72
2023/01/29 19:33:35;;;;;;;1999.90;999.90;;;;;;;;;;4954071;29;20201;-71
2023/01/29 19:36:20;;;;;;;1999.90;999.90;;;;;;;;;;4954028;29;20293;-72
2023/01/29 19:39:05;;;;;;;1999.90;999.90;;;;;;;;;;4953769;29;20588;-72
2023/01/29 19:41:50;;;;;;;1999.90;999.90;;;;;;;;;;4950335;28;20357;-71
2023/01/29 19:44:37;;;;;;;1999.90;999.90;;;;;;;;;;4953600;29;20209;-73
2023/01/29 19:47:23;;;;;;;1999.90;999.90;;;;;;;;;;4953375;29;20206;-72
2023/01/29 19:50:10;;;;;;;1999.90;999.90;;;;;;;;;;4953520;29;20201;-73
2023/01/29 19:52:55;;;;;;;1999.90;999.90;;;;;;;;;;4953784;29;20709;-72
2023/01/29 19:55:40;;;;;;;1999.90;999.90;;;;;;;;;;4953138;29;20236;-72
2023/01/29 19:58:24;;;;;;;1999.90;999.90;;;;;;;;;;4948849;28;20585;-72
2023/01/29 20:01:13;;;;;;;1999.90;999.90;;;;;;;;;;4945082;28;20238;-72
2023/01/29 20:03:58;;;;;;;1999.90;999.90;;;;;;;;;;4953627;29;20214;-71
2023/01/29 20:06:44;;;;;;;1999.90;999.90;;;;;;;;;;4953399;29;20214;-72
2023/01/29 20:09:29;;;;;;;1999.90;999.90;;;;;;;;;;4953392;29;20283;-72
2023/01/29 20:12:13;;;;;;;1999.90;999.90;;;;;;;;;;4953678;28;20731;-72
2023/01/29 20:14:58;;;;;;;1999.90;999.90;;;;;;;;;;4952841;29;20222;-73
2023/01/29 20:17:44;;;;;;;1999.90;999.90;;;;;;;;;;4953831;28;20579;-72
2023/01/29 20:20:30;;;;;;;1999.90;999.90;;;;;;;;;;4961066;28;20213;-72
2023/01/29 20:23:18;;;;;;;1999.90;999.90;;;;;;;;;;4952615;29;20231;-72
2023/01/29 20:26:03;;;;;;;1999.90;999.90;;;;;;;;;;4937885;29;20593;-72
2023/01/29 20:28:48;;;;;;;1999.90;999.90;;;;;;;;;;4942912;29;20257;-72
2023/01/29 20:31:33;;;;;;;1999.90;999.90;;;;;;;;;;4955462;29;20229;-73
2023/01/29 20:34:18;;;;;;;1999.90;999.90;;;;;;;;;;4956939;29;20228;-70